CheckWX is a tool to help pilots better visualize weather data.  It is not intended as a substitute for an official pre-flight weather briefing.

00:38:06 UTC

KILG TAF
New Castle Airport
Wilmington, Delaware, USA
KILG 262320Z 2700/2724 36008KT P6SM SKC FM271100 VRB04KT P6SM SKC

Mar-27@
00:00 UTC

Mar-27 @ 00:00 UTC

Mar-27@
11:00 UTC

Mar-27 @ 11:00 UTC

KILG 262320Z 2700/2724 36008KT P6SM SKC
Wind
  • 360° at 8 KTS
Cloud Levels
  • Clear skies

Mar-27@
11:00 UTC

Mar-27 @ 11:00 UTC

Mar-28@
00:00 UTC

Mar-28 @ 00:00 UTC

FM271100 VRB04KT P6SM SKC

From

From Standard forecast or significant change

Wind
  • Variable at 4 KTS
Cloud Levels
  • Clear skies